Time;durP1;ratioP1;P1;durP2;ratioP2;P2;SDS_P1;SDS_P2;PMS_P1;PMS_P2;Temp;Humidity;BMP_temperature;BMP_pressure;BME280_temperature;BME280_humidity;BME280_pressure;Samples;Min_cycle;Max_cycle;Signal;HPM_P1;HPM_P2
2022/01/24 00:00:03;;;;;;;10.88;5.80;;;;;;;;;;5023046;28;20026;-62
2022/01/24 00:02:30;;;;;;;12.15;5.28;;;;;;;;;;5020586;28;20121;-62
2022/01/24 00:04:56;;;;;;;14.30;5.57;;;;;;;;;;5032155;28;20513;-62
2022/01/24 00:07:24;;;;;;;14.27;6.60;;;;;;;;;;5035872;28;20017;-62
2022/01/24 00:09:53;;;;;;;15.00;5.95;;;;;;;;;;5035782;28;20030;-62
2022/01/24 00:12:27;;;;;;;14.65;6.80;;;;;;;;;;5037345;28;20079;-62
2022/01/24 00:28:08;;;;;;;12.80;5.55;;;;;;;;;;5035730;28;20036;-62
2022/01/24 00:30:34;;;;;;;9.50;5.10;;;;;;;;;;5030109;28;20025;-62
2022/01/24 00:33:00;;;;;;;9.77;5.30;;;;;;;;;;5034843;28;20120;-62
2022/01/24 00:35:26;;;;;;;9.32;5.07;;;;;;;;;;5035278;28;20174;-62
2022/01/24 00:37:52;;;;;;;10.55;5.65;;;;;;;;;;5035224;28;20100;-62
2022/01/24 00:40:19;;;;;;;9.32;5.05;;;;;;;;;;5029473;28;20029;-62
2022/01/24 00:42:52;;;;;;;9.43;5.05;;;;;;;;;;5034773;28;20023;-62
2022/01/24 00:45:30;;;;;;;;;;;;;;;;;;5035554;28;20570;-62
2022/01/24 00:56:07;;;;;;;9.43;4.45;;;;;;;;;;5030862;28;20033;-62
2022/01/24 00:58:33;;;;;;;9.43;4.95;;;;;;;;;;5032232;28;20350;-62
2022/01/24 01:01:00;;;;;;;7.60;4.25;;;;;;;;;;5033807;28;20030;-62
2022/01/24 01:03:26;;;;;;;8.48;4.88;;;;;;;;;;5034791;28;20034;-62
2022/01/24 01:06:04;;;;;;;11.13;4.72;;;;;;;;;;5034709;28;20025;-62
2022/01/24 01:19:29;;;;;;;8.45;4.82;;;;;;;;;;5034616;28;20088;-62
2022/01/24 01:21:55;;;;;;;9.20;4.45;;;;;;;;;;5034299;28;20429;-62
2022/01/24 01:24:23;;;;;;;8.68;4.40;;;;;;;;;;5028063;28;20450;-62
2022/01/24 01:27:10;;;;;;;9.57;4.88;;;;;;;;;;5034513;28;20458;-62
2022/01/24 01:29:49;;;;;;;10.60;5.45;;;;;;;;;;5039015;28;20183;-62
2022/01/24 01:32:29;;;;;;;9.02;4.80;;;;;;;;;;5028650;28;20477;-62
2022/01/24 01:35:23;;;;;;;9.43;4.03;;;;;;;;;;5034137;28;20358;-62
2022/01/24 01:38:22;;;;;;;8.90;4.88;;;;;;;;;;5034023;28;20033;-62
2022/01/24 01:54:52;;;;;;;10.02;5.03;;;;;;;;;;5033637;28;20095;-62
2022/01/24 01:57:15;;;;;;;10.13;5.53;;;;;;;;;;5026864;28;20034;-62
2022/01/24 01:59:41;;;;;;;9.15;5.07;;;;;;;;;;5031772;28;20030;-62
2022/01/24 02:02:07;;;;;;;12.68;6.30;;;;;;;;;;5021606;28;20036;-62
2022/01/24 02:04:33;;;;;;;9.27;5.10;;;;;;;;;;5033459;28;20095;-62
2022/01/24 02:07:00;;;;;;;12.68;4.90;;;;;;;;;;5032881;28;20034;-62
2022/01/24 02:09:34;;;;;;;9.52;5.15;;;;;;;;;;5033585;28;20381;-62
2022/01/24 02:11:59;;;;;;;;;;;;;;;;;;5035575;28;20144;-62
2022/01/24 02:14:33;;;;;;;10.15;5.35;;;;;;;;;;5033581;28;20347;-62
2022/01/24 02:17:10;;;;;;;;;;;;;;;;;;5031063;28;20021;-62
2022/01/24 02:19:53;;;;;;;9.30;4.82;;;;;;;;;;5033650;28;19952;-62
2022/01/24 02:25:21;;;;;;;10.43;5.13;;;;;;;;;;5023719;28;19978;-62
2022/01/24 02:27:45;;;;;;;8.55;4.82;;;;;;;;;;5032836;28;20124;-62
2022/01/24 02:30:25;;;;;;;16.65;5.93;;;;;;;;;;5030906;28;20045;-61
2022/01/24 02:32:51;;;;;;;12.20;6.32;;;;;;;;;;5032699;28;20060;-62
2022/01/24 02:35:17;;;;;;;11.65;5.93;;;;;;;;;;5032917;28;20061;-62
2022/01/24 02:37:43;;;;;;;8.70;5.43;;;;;;;;;;5033151;28;20690;-62
2022/01/24 02:40:14;;;;;;;11.38;6.13;;;;;;;;;;5030857;28;20105;-62
2022/01/24 02:48:24;;;;;;;11.88;6.05;;;;;;;;;;5020900;28;20032;-62
2022/01/24 02:53:35;;;;;;;13.20;5.63;;;;;;;;;;5032842;28;20575;-62
2022/01/24 02:56:02;;;;;;;12.65;5.85;;;;;;;;;;5027014;28;20418;-62
2022/01/24 02:58:28;;;;;;;12.93;6.25;;;;;;;;;;5022537;28;20033;-62
2022/01/24 03:00:55;;;;;;;8.88;5.25;;;;;;;;;;5030910;28;20084;-62
2022/01/24 03:03:21;;;;;;;12.65;6.78;;;;;;;;;;5032844;28;20527;-62
2022/01/24 03:05:47;;;;;;;10.55;5.47;;;;;;;;;;5020719;28;20032;-62
2022/01/24 03:08:14;;;;;;;11.55;6.38;;;;;;;;;;5032727;28;20053;-62
2022/01/24 03:10:45;;;;;;;13.07;5.97;;;;;;;;;;5015462;28;20037;-62
2022/01/24 03:13:29;;;;;;;11.38;5.45;;;;;;;;;;5029604;28;20017;-62
2022/01/24 03:15:57;;;;;;;15.82;6.53;;;;;;;;;;5023363;28;20077;-62
2022/01/24 03:18:23;;;;;;;17.23;6.72;;;;;;;;;;5028352;28;20033;-62
2022/01/24 03:20:49;;;;;;;13.73;6.53;;;;;;;;;;5027480;28;20025;-62
2022/01/24 03:23:16;;;;;;;13.35;6.07;;;;;;;;;;5031990;28;20368;-62
2022/01/24 03:25:43;;;;;;;9.70;5.30;;;;;;;;;;5029314;28;20481;-62
2022/01/24 03:28:09;;;;;;;12.13;5.80;;;;;;;;;;5031850;28;20071;-62
2022/01/24 03:30:35;;;;;;;12.90;5.95;;;;;;;;;;5028379;28;20022;-62
2022/01/24 03:33:02;;;;;;;11.20;6.10;;;;;;;;;;5029724;28;20108;-62
2022/01/24 03:35:28;;;;;;;11.20;5.85;;;;;;;;;;5025872;28;20513;-62
2022/01/24 03:37:54;;;;;;;10.88;5.95;;;;;;;;;;5021695;28;20397;-61
2022/01/24 03:40:20;;;;;;;12.07;6.10;;;;;;;;;;5031797;28;20026;-62
2022/01/24 03:42:46;;;;;;;18.23;5.95;;;;;;;;;;5031412;28;20420;-62
2022/01/24 03:45:12;;;;;;;11.93;6.32;;;;;;;;;;5024120;28;20034;-62
2022/01/24 03:50:11;;;;;;;11.73;6.13;;;;;;;;;;5032309;28;20148;-62
2022/01/24 03:52:37;;;;;;;11.25;5.47;;;;;;;;;;5031453;28;20026;-62
2022/01/24 03:55:04;;;;;;;10.38;6.60;;;;;;;;;;5031705;28;20029;-62
2022/01/24 03:57:30;;;;;;;10.85;6.00;;;;;;;;;;5018804;28;20087;-62
2022/01/24 03:59:56;;;;;;;15.02;6.43;;;;;;;;;;5030462;28;20037;-62
2022/01/24 04:02:24;;;;;;;11.48;6.18;;;;;;;;;;5031023;28;20029;-62
2022/01/24 04:04:50;;;;;;;13.35;6.18;;;;;;;;;;5032028;28;20087;-62
2022/01/24 04:07:16;;;;;;;11.38;5.70;;;;;;;;;;5030817;28;20041;-62
2022/01/24 04:09:43;;;;;;;12.02;6.07;;;;;;;;;;5025338;28;20032;-62
2022/01/24 04:12:10;;;;;;;11.23;5.82;;;;;;;;;;5031943;28;20029;-62
2022/01/24 04:17:19;;;;;;;13.23;6.00;;;;;;;;;;5019244;28;20369;-62
2022/01/24 04:22:30;;;;;;;10.43;5.32;;;;;;;;;;5031014;28;20064;-62
2022/01/24 04:25:02;;;;;;;13.30;5.80;;;;;;;;;;5031882;28;20364;-62
2022/01/24 04:27:29;;;;;;;11.60;5.93;;;;;;;;;;5030589;28;20038;-62
2022/01/24 04:29:55;;;;;;;10.30;5.28;;;;;;;;;;5027004;28;20037;-62
2022/01/24 04:32:21;;;;;;;14.13;6.45;;;;;;;;;;5025605;28;20030;-62
2022/01/24 04:34:47;;;;;;;13.95;6.43;;;;;;;;;;5027539;28;20314;-62
2022/01/24 04:37:13;;;;;;;12.63;6.40;;;;;;;;;;5030638;28;20033;-62
2022/01/24 04:39:39;;;;;;;16.75;6.68;;;;;;;;;;5031641;28;20040;-62
2022/01/24 04:42:10;;;;;;;13.60;6.78;;;;;;;;;;5031125;28;20105;-62
2022/01/24 04:52:46;;;;;;;12.27;6.53;;;;;;;;;;5032280;28;20370;-62
2022/01/24 04:55:12;;;;;;;11.20;6.03;;;;;;;;;;5035013;28;20030;-62
2022/01/24 04:57:38;;;;;;;12.57;6.28;;;;;;;;;;5034891;28;20113;-61
2022/01/24 05:00:06;;;;;;;12.73;6.40;;;;;;;;;;5033791;28;20116;-62
2022/01/24 05:02:32;;;;;;;11.82;6.18;;;;;;;;;;5034178;28;20473;-61
2022/01/24 05:04:59;;;;;;;13.00;5.63;;;;;;;;;;5021545;28;20065;-62
2022/01/24 05:07:25;;;;;;;9.68;5.65;;;;;;;;;;5034872;28;20032;-61
2022/01/24 05:10:03;;;;;;;13.40;5.78;;;;;;;;;;5034724;28;20026;-61
2022/01/24 05:21:11;;;;;;;9.63;5.32;;;;;;;;;;5034078;28;20041;-61
2022/01/24 05:23:32;;;;;;;11.75;6.10;;;;;;;;;;5040163;28;20064;-62
2022/01/24 05:25:59;;;;;;;16.30;6.55;;;;;;;;;;5034003;28;20064;-62
2022/01/24 05:28:25;;;;;;;15.75;6.80;;;;;;;;;;5032598;28;20024;-62
2022/01/24 05:30:51;;;;;;;12.13;5.47;;;;;;;;;;5028260;28;20665;-61
2022/01/24 05:33:17;;;;;;;15.80;6.72;;;;;;;;;;5021614;28;20130;-62
2022/01/24 05:35:43;;;;;;;14.15;6.82;;;;;;;;;;5032584;28;20128;-62
2022/01/24 05:38:10;;;;;;;13.00;6.65;;;;;;;;;;5030835;28;20041;-62
2022/01/24 05:40:36;;;;;;;15.55;6.68;;;;;;;;;;5022424;28;20124;-61
2022/01/24 05:43:02;;;;;;;13.10;6.63;;;;;;;;;;5027134;28;20398;-61
2022/01/24 05:45:28;;;;;;;13.98;6.70;;;;;;;;;;5034187;28;20033;-62
2022/01/24 05:47:54;;;;;;;10.50;5.43;;;;;;;;;;5032289;28;20028;-62
2022/01/24 05:50:20;;;;;;;12.80;6.10;;;;;;;;;;5028124;28;20026;-62
2022/01/24 05:52:46;;;;;;;12.00;6.20;;;;;;;;;;5034027;28;20029;-62
2022/01/24 05:55:12;;;;;;;11.48;5.50;;;;;;;;;;5032688;28;20132;-62
2022/01/24 05:57:38;;;;;;;11.93;6.50;;;;;;;;;;5033757;28;20408;-62
2022/01/24 06:00:06;;;;;;;13.55;6.78;;;;;;;;;;5029365;28;20025;-62
2022/01/24 06:02:32;;;;;;;13.32;6.40;;;;;;;;;;5033024;28;20025;-62
2022/01/24 06:04:58;;;;;;;13.55;6.28;;;;;;;;;;5033120;28;20060;-62
2022/01/24 06:07:24;;;;;;;14.68;6.72;;;;;;;;;;5022493;28;20129;-62
2022/01/24 06:09:49;;;;;;;16.92;6.57;;;;;;;;;;5032714;28;20477;-62
2022/01/24 06:12:16;;;;;;;12.15;6.45;;;;;;;;;;5033131;28;20361;-62
2022/01/24 06:14:42;;;;;;;13.57;6.18;;;;;;;;;;5025807;28;20112;-62
2022/01/24 06:17:08;;;;;;;10.40;5.45;;;;;;;;;;5014861;28;20188;-62
2022/01/24 06:19:34;;;;;;;12.00;5.90;;;;;;;;;;5031345;28;20021;-62
2022/01/24 06:22:00;;;;;;;13.57;5.97;;;;;;;;;;5023930;28;20377;-62
2022/01/24 06:24:26;;;;;;;11.23;5.40;;;;;;;;;;5028960;28;20030;-62
2022/01/24 06:26:52;;;;;;;13.20;5.88;;;;;;;;;;5030454;28;20385;-62
2022/01/24 06:29:18;;;;;;;11.65;6.30;;;;;;;;;;5027335;28;20068;-62
2022/01/24 06:31:44;;;;;;;12.77;5.70;;;;;;;;;;5038872;28;20074;-62
2022/01/24 06:34:10;;;;;;;12.65;6.15;;;;;;;;;;5032173;28;20477;-62
2022/01/24 06:36:36;;;;;;;12.30;6.20;;;;;;;;;;5025561;28;20523;-62
2022/01/24 06:39:04;;;;;;;11.52;5.80;;;;;;;;;;5031403;28;20021;-62
2022/01/24 06:41:33;;;;;;;10.95;5.30;;;;;;;;;;5032286;28;20025;-62
2022/01/24 06:44:00;;;;;;;13.02;5.63;;;;;;;;;;5029326;28;20112;-62
2022/01/24 06:46:26;;;;;;;11.15;5.70;;;;;;;;;;5025556;28;20108;-62
2022/01/24 06:48:52;;;;;;;9.50;4.88;;;;;;;;;;5032875;28;20112;-62
2022/01/24 06:51:18;;;;;;;12.93;5.35;;;;;;;;;;5031758;28;20053;-62
2022/01/24 06:53:44;;;;;;;10.82;5.18;;;;;;;;;;5031232;28;20026;-62
2022/01/24 06:56:10;;;;;;;11.38;5.03;;;;;;;;;;5026259;28;20060;-62
2022/01/24 06:58:37;;;;;;;10.45;5.20;;;;;;;;;;5024847;28;20025;-62
2022/01/24 07:01:03;;;;;;;10.18;4.65;;;;;;;;;;5023015;28;20029;-62
2022/01/24 07:03:29;;;;;;;10.45;5.10;;;;;;;;;;5027041;28;20033;-62
2022/01/24 07:05:55;;;;;;;12.05;5.32;;;;;;;;;;5028012;28;20116;-62
2022/01/24 07:08:21;;;;;;;12.10;5.53;;;;;;;;;;5028817;28;20034;-62
2022/01/24 07:10:47;;;;;;;10.57;4.82;;;;;;;;;;5023655;28;20474;-62
2022/01/24 07:13:14;;;;;;;9.80;5.13;;;;;;;;;;5038401;28;20037;-62
2022/01/24 07:15:53;;;;;;;13.07;4.95;;;;;;;;;;5025469;28;20021;-62
2022/01/24 07:20:55;;;;;;;13.65;5.75;;;;;;;;;;5018970;28;20049;-62
2022/01/24 07:23:21;;;;;;;11.30;4.50;;;;;;;;;;5025597;28;20041;-62
2022/01/24 07:25:47;;;;;;;8.20;4.32;;;;;;;;;;5031909;28;20033;-62
2022/01/24 07:28:13;;;;;;;12.40;5.55;;;;;;;;;;5017861;28;20029;-62
2022/01/24 07:30:39;;;;;;;12.30;5.22;;;;;;;;;;5019116;28;20113;-62
2022/01/24 07:33:06;;;;;;;10.90;5.15;;;;;;;;;;5017809;28;20112;-62
2022/01/24 07:35:32;;;;;;;9.85;4.78;;;;;;;;;;5033461;28;20470;-62
2022/01/24 07:37:58;;;;;;;14.90;6.90;;;;;;;;;;5020845;28;20049;-61
2022/01/24 07:40:24;;;;;;;10.88;4.97;;;;;;;;;;5026331;28;20064;-62
2022/01/24 07:43:24;;;;;;;10.90;4.95;;;;;;;;;;5027829;28;20030;-62
2022/01/24 07:45:45;;;;;;;12.90;4.60;;;;;;;;;;5023372;28;20034;-62
2022/01/24 07:48:11;;;;;;;9.07;4.55;;;;;;;;;;5023853;28;20037;-62
2022/01/24 07:50:40;;;;;;;9.57;4.45;;;;;;;;;;5018881;28;20055;-62
2022/01/24 07:53:06;;;;;;;11.50;4.90;;;;;;;;;;5021348;28;20030;-62
2022/01/24 07:55:33;;;;;;;9.98;4.80;;;;;;;;;;5022697;28;20026;-61
2022/01/24 07:57:59;;;;;;;8.65;4.40;;;;;;;;;;5022749;28;20026;-62
2022/01/24 08:00:25;;;;;;;9.30;4.18;;;;;;;;;;5029097;28;20088;-62
2022/01/24 08:02:51;;;;;;;8.65;4.38;;;;;;;;;;5027867;28;20068;-62
2022/01/24 08:05:17;;;;;;;7.47;3.95;;;;;;;;;;5023076;28;20064;-62
2022/01/24 08:07:43;;;;;;;9.07;3.85;;;;;;;;;;5030401;28;20497;-62
2022/01/24 08:10:09;;;;;;;9.75;4.38;;;;;;;;;;5019791;28;20036;-62
2022/01/24 08:12:36;;;;;;;10.52;4.57;;;;;;;;;;5020557;28;20034;-62
2022/01/24 08:15:03;;;;;;;9.07;4.22;;;;;;;;;;5026914;28;20033;-62
2022/01/24 08:17:30;;;;;;;10.65;4.78;;;;;;;;;;5019267;28;20080;-61
2022/01/24 08:19:56;;;;;;;8.68;3.72;;;;;;;;;;5018385;28;20041;-63
2022/01/24 08:22:22;;;;;;;8.90;4.07;;;;;;;;;;5027602;28;20120;-61
2022/01/24 08:24:50;;;;;;;9.60;4.30;;;;;;;;;;5026048;28;20125;-62
2022/01/24 08:27:18;;;;;;;8.60;4.07;;;;;;;;;;5023295;28;20022;-62
2022/01/24 08:29:45;;;;;;;8.30;3.90;;;;;;;;;;5022235;28;20032;-62
2022/01/24 08:32:11;;;;;;;8.85;3.65;;;;;;;;;;5026861;28;20068;-62
2022/01/24 08:34:38;;;;;;;8.55;3.97;;;;;;;;;;5034645;28;20619;-62
2022/01/24 08:37:04;;;;;;;8.45;3.80;;;;;;;;;;5021211;28;20064;-62
2022/01/24 08:39:30;;;;;;;8.52;3.88;;;;;;;;;;5032186;28;20596;-62
2022/01/24 08:42:13;;;;;;;9.45;4.00;;;;;;;;;;5031267;28;20456;-62
2022/01/24 08:47:05;;;;;;;10.25;4.53;;;;;;;;;;5028825;28;20460;-62
2022/01/24 08:49:32;;;;;;;7.85;3.85;;;;;;;;;;5017111;28;20108;-62
2022/01/24 08:51:59;;;;;;;8.20;3.90;;;;;;;;;;5024251;28;20030;-62
2022/01/24 08:54:25;;;;;;;9.77;4.28;;;;;;;;;;5026238;28;20115;-62
2022/01/24 08:56:52;;;;;;;10.15;3.88;;;;;;;;;;5025934;28;20426;-61
2022/01/24 08:59:17;;;;;;;8.25;3.83;;;;;;;;;;5027289;28;20029;-62
2022/01/24 09:01:46;;;;;;;7.93;3.47;;;;;;;;;;5029767;28;20025;-62
2022/01/24 09:04:12;;;;;;;7.53;3.35;;;;;;;;;;5031567;28;20033;-62
2022/01/24 09:06:38;;;;;;;8.00;3.30;;;;;;;;;;5030048;28;20062;-62
2022/01/24 09:09:05;;;;;;;9.88;3.95;;;;;;;;;;5021028;28;20033;-62
2022/01/24 09:11:35;;;;;;;6.53;2.95;;;;;;;;;;5025668;28;20071;-62
2022/01/24 09:14:03;;;;;;;6.63;3.22;;;;;;;;;;5024326;28;20041;-62
2022/01/24 09:16:29;;;;;;;6.57;3.47;;;;;;;;;;5027950;28;20054;-61
2022/01/24 09:18:55;;;;;;;6.82;3.13;;;;;;;;;;5026255;28;20049;-62
2022/01/24 09:21:22;;;;;;;8.23;3.83;;;;;;;;;;5021392;28;20022;-62
2022/01/24 09:23:48;;;;;;;10.80;2.92;;;;;;;;;;5022380;28;20029;-61
2022/01/24 09:26:14;;;;;;;9.05;3.83;;;;;;;;;;5023967;28;20090;-61
2022/01/24 09:28:40;;;;;;;8.98;3.95;;;;;;;;;;5028628;28;20768;-62
2022/01/24 09:31:06;;;;;;;8.10;4.13;;;;;;;;;;5030334;28;20030;-61
2022/01/24 09:33:32;;;;;;;10.82;4.13;;;;;;;;;;5016959;28;20541;-61
2022/01/24 09:36:00;;;;;;;12.30;5.13;;;;;;;;;;5016708;28;20045;-62
2022/01/24 09:38:30;;;;;;;10.98;5.43;;;;;;;;;;5025131;28;20470;-62
2022/01/24 09:40:56;;;;;;;17.73;5.75;;;;;;;;;;5021065;28;20033;-61
2022/01/24 09:43:22;;;;;;;13.68;6.03;;;;;;;;;;5025491;28;20029;-62
2022/01/24 09:45:49;;;;;;;12.23;5.20;;;;;;;;;;5023071;28;20064;-61
2022/01/24 09:48:16;;;;;;;17.45;6.40;;;;;;;;;;5029871;28;20048;-62
2022/01/24 09:50:42;;;;;;;11.70;4.95;;;;;;;;;;5025084;28;20083;-62
2022/01/24 09:53:08;;;;;;;14.77;6.82;;;;;;;;;;5026286;28;20444;-62
2022/01/24 09:55:34;;;;;;;16.20;7.22;;;;;;;;;;5031237;28;20025;-61
2022/01/24 09:58:01;;;;;;;17.48;7.15;;;;;;;;;;5033466;28;20022;-62
2022/01/24 10:00:28;;;;;;;15.00;6.88;;;;;;;;;;5025832;28;20148;-62
2022/01/24 10:02:54;;;;;;;14.75;6.32;;;;;;;;;;5024147;28;20026;-62
2022/01/24 10:05:33;;;;;;;16.23;7.38;;;;;;;;;;5020209;28;20034;-60
2022/01/24 10:08:00;;;;;;;17.88;7.63;;;;;;;;;;5027872;28;20072;-61
2022/01/24 10:10:30;;;;;;;15.15;7.63;;;;;;;;;;5022342;28;20366;-62
2022/01/24 10:18:26;;;;;;;17.67;7.85;;;;;;;;;;5029138;28;20065;-62
2022/01/24 10:20:52;;;;;;;16.52;7.80;;;;;;;;;;5026745;28;20065;-62
2022/01/24 10:23:24;;;;;;;13.57;6.53;;;;;;;;;;5030710;28;20060;-62
2022/01/24 10:25:59;;;;;;;15.90;7.35;;;;;;;;;;5030407;28;20156;-62
2022/01/24 10:28:27;;;;;;;15.23;7.30;;;;;;;;;;5022013;28;20106;-62
2022/01/24 10:31:05;;;;;;;16.15;6.78;;;;;;;;;;5018680;28;20044;-61
2022/01/24 10:33:31;;;;;;;14.73;6.88;;;;;;;;;;5018854;28;20022;-62
2022/01/24 10:35:58;;;;;;;16.63;5.85;;;;;;;;;;5029009;28;20052;-61
2022/01/24 10:39:07;;;;;;;14.23;6.43;;;;;;;;;;5025893;28;20485;-61
2022/01/24 10:43:41;;;;;;;13.82;5.65;;;;;;;;;;5021603;28;20490;-62
2022/01/24 10:46:08;;;;;;;11.57;4.90;;;;;;;;;;5029905;28;20037;-62
2022/01/24 10:48:35;;;;;;;11.43;6.15;;;;;;;;;;5024524;28;20034;-62
2022/01/24 10:51:05;;;;;;;10.93;5.15;;;;;;;;;;5023749;28;20026;-62
2022/01/24 10:53:36;;;;;;;11.15;5.68;;;;;;;;;;5027558;28;20045;-62
2022/01/24 10:56:02;;;;;;;10.60;5.70;;;;;;;;;;5027845;28;20072;-61
2022/01/24 10:58:33;;;;;;;10.90;4.65;;;;;;;;;;5031978;28;20529;-61
2022/01/24 11:00:59;;;;;;;12.02;5.57;;;;;;;;;;5026082;28;20471;-62
2022/01/24 11:03:25;;;;;;;10.75;4.82;;;;;;;;;;5024332;28;20030;-61
2022/01/24 11:05:51;;;;;;;10.82;4.97;;;;;;;;;;5027856;28;20887;-62
2022/01/24 11:08:18;;;;;;;8.93;3.80;;;;;;;;;;5028979;28;20034;-62
2022/01/24 11:10:48;;;;;;;9.38;4.30;;;;;;;;;;5027206;28;20034;-61
2022/01/24 11:13:20;;;;;;;10.40;3.38;;;;;;;;;;5023118;28;20026;-62
2022/01/24 11:15:55;;;;;;;7.82;3.67;;;;;;;;;;5027475;28;20040;-61
2022/01/24 11:18:25;;;;;;;9.05;3.42;;;;;;;;;;5024412;28;20036;-61
2022/01/24 11:21:01;;;;;;;6.95;3.60;;;;;;;;;;5024473;28;20120;-61
2022/01/24 11:23:27;;;;;;;8.38;3.58;;;;;;;;;;5030139;28;20041;-61
2022/01/24 11:25:57;;;;;;;6.90;3.42;;;;;;;;;;5039281;28;20024;-62
2022/01/24 11:28:26;;;;;;;7.35;3.33;;;;;;;;;;5026528;28;20030;-61
2022/01/24 11:30:58;;;;;;;7.03;3.50;;;;;;;;;;5025875;28;20029;-61
2022/01/24 11:33:33;;;;;;;6.88;3.08;;;;;;;;;;5022202;28;20143;-61
2022/01/24 11:36:01;;;;;;;7.43;3.67;;;;;;;;;;5028932;28;20054;-61
2022/01/24 11:38:28;;;;;;;7.95;2.95;;;;;;;;;;5029322;28;20033;-61
2022/01/24 11:41:00;;;;;;;5.70;2.75;;;;;;;;;;5027894;28;20034;-62
2022/01/24 11:43:27;;;;;;;6.90;3.28;;;;;;;;;;5020187;28;20026;-61
2022/01/24 11:46:03;;;;;;;4.50;2.30;;;;;;;;;;5018365;28;20536;-61
2022/01/24 11:48:29;;;;;;;6.78;2.78;;;;;;;;;;5025712;28;20104;-60
2022/01/24 11:51:00;;;;;;;6.28;3.15;;;;;;;;;;5022272;28;20072;-62
2022/01/24 11:53:28;;;;;;;9.05;2.70;;;;;;;;;;5028271;28;20067;-61
2022/01/24 11:55:55;;;;;;;7.80;3.00;;;;;;;;;;5022821;28;20032;-61
2022/01/24 11:58:29;;;;;;;5.95;2.88;;;;;;;;;;5027446;28;20028;-61
2022/01/24 12:00:57;;;;;;;5.95;2.92;;;;;;;;;;5030873;28;20018;-60
2022/01/24 12:03:26;;;;;;;8.75;3.97;;;;;;;;;;5030254;28;20132;-62
2022/01/24 12:05:53;;;;;;;5.22;2.80;;;;;;;;;;5026734;28;20100;-61
2022/01/24 12:08:38;;;;;;;6.75;3.67;;;;;;;;;;5018731;28;20018;-61
2022/01/24 12:11:23;;;;;;;5.47;2.95;;;;;;;;;;5015982;28;20030;-61
2022/01/24 12:13:51;;;;;;;6.43;3.28;;;;;;;;;;5020333;28;20037;-61
2022/01/24 12:16:18;;;;;;;11.10;3.92;;;;;;;;;;5025787;28;20026;-61
2022/01/24 12:18:46;;;;;;;7.00;3.45;;;;;;;;;;5032656;28;20029;-62
2022/01/24 12:21:13;;;;;;;7.03;3.30;;;;;;;;;;5024718;28;20878;-61
2022/01/24 12:23:40;;;;;;;7.47;3.13;;;;;;;;;;5019382;28;20080;-62
2022/01/24 12:26:20;;;;;;;8.07;3.03;;;;;;;;;;5030105;28;20040;-61
2022/01/24 12:28:52;;;;;;;6.50;2.72;;;;;;;;;;5027691;28;20033;-62
2022/01/24 12:31:29;;;;;;;5.10;2.60;;;;;;;;;;5024456;28;20373;-62
2022/01/24 12:33:55;;;;;;;6.70;3.08;;;;;;;;;;5026120;28;20030;-62
2022/01/24 12:36:46;;;;;;;6.20;3.15;;;;;;;;;;5023172;28;20052;-61
2022/01/24 12:39:33;;;;;;;4.43;2.55;;;;;;;;;;5022485;28;20033;-62
2022/01/24 12:42:03;;;;;;;5.25;2.85;;;;;;;;;;5024468;28;20034;-62
2022/01/24 12:46:18;;;;;;;5.55;2.90;;;;;;;;;;5031106;28;20048;-61
2022/01/24 12:47:24;;;;;;;6.03;2.50;;;;;;;;;;5025062;28;20049;-62
2022/01/24 12:49:51;;;;;;;4.47;2.30;;;;;;;;;;5022108;28;20648;-62
2022/01/24 12:52:19;;;;;;;3.95;2.20;;;;;;;;;;5033338;28;20080;-62
2022/01/24 12:54:46;;;;;;;4.75;2.30;;;;;;;;;;5034511;28;20502;-62
2022/01/24 12:57:14;;;;;;;5.20;2.30;;;;;;;;;;5025087;28;20515;-62
2022/01/24 12:59:50;;;;;;;4.10;2.15;;;;;;;;;;5021555;28;20358;-62
2022/01/24 13:02:22;;;;;;;4.95;2.72;;;;;;;;;;5031384;28;20025;-61
2022/01/24 13:04:51;;;;;;;9.63;2.40;;;;;;;;;;5032414;28;20495;-62
2022/01/24 13:07:17;;;;;;;5.28;2.28;;;;;;;;;;5023145;28;20049;-62
2022/01/24 13:09:43;;;;;;;5.43;2.50;;;;;;;;;;5032410;28;20430;-62
2022/01/24 13:12:10;;;;;;;3.45;1.95;;;;;;;;;;5021920;28;20037;-61
2022/01/24 13:14:51;;;;;;;3.92;2.20;;;;;;;;;;5031340;28;20068;-62
2022/01/24 13:20:45;;;;;;;3.35;1.80;;;;;;;;;;5031486;28;20049;-62
2022/01/24 13:23:11;;;;;;;5.45;2.17;;;;;;;;;;5027046;28;20042;-61
2022/01/24 13:25:38;;;;;;;3.95;2.00;;;;;;;;;;5030670;28;20492;-62
2022/01/24 13:28:06;;;;;;;4.13;2.00;;;;;;;;;;5024016;28;20083;-61
2022/01/24 13:30:33;;;;;;;5.30;1.80;;;;;;;;;;5024170;28;20025;-62
2022/01/24 13:33:00;;;;;;;4.05;1.98;;;;;;;;;;5020389;28;20030;-62
2022/01/24 13:35:27;;;;;;;4.78;2.20;;;;;;;;;;5021536;28;20038;-62
2022/01/24 13:38:07;;;;;;;4.30;1.90;;;;;;;;;;5027184;28;20809;-61
2022/01/24 13:40:39;;;;;;;3.75;2.00;;;;;;;;;;5031614;28;20547;-61
2022/01/24 13:43:06;;;;;;;6.43;2.22;;;;;;;;;;5024309;28;20026;-62
2022/01/24 13:45:35;;;;;;;4.95;2.35;;;;;;;;;;5024090;28;20029;-62
2022/01/24 13:48:02;;;;;;;4.78;2.60;;;;;;;;;;5020473;28;20416;-61
2022/01/24 13:50:28;;;;;;;4.75;2.60;;;;;;;;;;5032540;28;20104;-62
2022/01/24 13:52:54;;;;;;;4.80;2.30;;;;;;;;;;5029882;28;20033;-61
2022/01/24 13:55:22;;;;;;;5.43;2.50;;;;;;;;;;5026659;28;20339;-62
2022/01/24 13:57:49;;;;;;;5.00;2.90;;;;;;;;;;5027008;28;20129;-60
2022/01/24 14:00:20;;;;;;;4.60;3.05;;;;;;;;;;5033320;28;20052;-61
2022/01/24 14:02:46;;;;;;;6.88;3.28;;;;;;;;;;5029619;28;20080;-62
2022/01/24 14:05:13;;;;;;;6.47;3.05;;;;;;;;;;5033438;28;20753;-62
2022/01/24 14:07:42;;;;;;;6.10;2.67;;;;;;;;;;5031290;28;20497;-61
2022/01/24 14:10:10;;;;;;;5.47;3.00;;;;;;;;;;5020350;28;20057;-62
2022/01/24 14:12:47;;;;;;;7.03;3.45;;;;;;;;;;5033757;28;20037;-61
2022/01/24 14:15:31;;;;;;;6.13;2.83;;;;;;;;;;5032565;28;20137;-62
2022/01/24 14:20:30;;;;;;;6.72;3.03;;;;;;;;;;5033661;28;20037;-61
2022/01/24 14:22:56;;;;;;;6.70;3.17;;;;;;;;;;5025694;28;20026;-62
2022/01/24 14:25:29;;;;;;;7.80;3.55;;;;;;;;;;5031676;28;20536;-62
2022/01/24 14:27:58;;;;;;;6.40;3.30;;;;;;;;;;5023645;28;20432;-62
2022/01/24 14:30:27;;;;;;;6.70;3.17;;;;;;;;;;5020321;28;20453;-61
2022/01/24 14:33:05;;;;;;;5.18;3.00;;;;;;;;;;5032831;28;20034;-61
2022/01/24 14:35:37;;;;;;;8.98;3.75;;;;;;;;;;5033049;28;20065;-61
2022/01/24 14:38:04;;;;;;;7.93;3.92;;;;;;;;;;5023723;28;20112;-61
2022/01/24 14:40:52;;;;;;;6.63;3.53;;;;;;;;;;5037993;28;20032;-61
2022/01/24 14:46:07;;;;;;;6.28;3.42;;;;;;;;;;5030086;28;20119;-61
2022/01/24 14:48:52;;;;;;;7.90;4.30;;;;;;;;;;5042403;28;20030;-61
2022/01/24 14:51:23;;;;;;;9.75;4.18;;;;;;;;;;5035348;28;20045;-61
2022/01/24 14:53:53;;;;;;;11.52;3.92;;;;;;;;;;5032730;28;20065;-61
2022/01/24 14:56:20;;;;;;;8.98;4.25;;;;;;;;;;5033110;28;20026;-61
2022/01/24 14:58:46;;;;;;;9.80;4.07;;;;;;;;;;5032565;28;20489;-61
2022/01/24 15:01:13;;;;;;;7.90;4.20;;;;;;;;;;5032396;28;20033;-61
2022/01/24 15:03:40;;;;;;;10.50;4.90;;;;;;;;;;5036241;28;20481;-61
2022/01/24 15:06:07;;;;;;;12.93;5.07;;;;;;;;;;5031537;28;20029;-62
2022/01/24 15:08:33;;;;;;;12.13;4.75;;;;;;;;;;5032588;28;20029;-61
2022/01/24 15:10:59;;;;;;;10.07;4.50;;;;;;;;;;5032319;28;20025;-61
2022/01/24 15:13:33;;;;;;;10.73;5.32;;;;;;;;;;5029118;28;20117;-61
2022/01/24 15:16:28;;;;;;;11.45;4.82;;;;;;;;;;5026442;28;20021;-62
2022/01/24 15:24:28;;;;;;;11.75;5.32;;;;;;;;;;5034362;28;20052;-62
2022/01/24 15:26:54;;;;;;;10.18;4.78;;;;;;;;;;5032695;28;20052;-62
2022/01/24 15:29:20;;;;;;;9.98;4.90;;;;;;;;;;5032329;28;20495;-62
2022/01/24 15:31:47;;;;;;;12.10;4.97;;;;;;;;;;5030150;28;20033;-61
2022/01/24 15:34:13;;;;;;;9.93;4.22;;;;;;;;;;5031919;28;20033;-62
2022/01/24 15:36:40;;;;;;;12.10;5.35;;;;;;;;;;5030503;28;20075;-62
2022/01/24 15:39:07;;;;;;;8.93;4.50;;;;;;;;;;5027624;28;20036;-62
2022/01/24 15:41:42;;;;;;;9.02;4.78;;;;;;;;;;5022749;28;20029;-62
2022/01/24 15:44:31;;;;;;;10.63;5.30;;;;;;;;;;5015716;28;20091;-61
2022/01/24 15:47:29;;;;;;;13.20;5.60;;;;;;;;;;5022178;28;20469;-61
2022/01/24 15:49:50;;;;;;;10.45;5.10;;;;;;;;;;5019524;28;20045;-62
2022/01/24 15:52:16;;;;;;;10.68;4.50;;;;;;;;;;5025149;28;20033;-61
2022/01/24 15:54:45;;;;;;;9.95;5.03;;;;;;;;;;5027743;28;20112;-62
2022/01/24 15:59:55;;;;;;;10.50;4.72;;;;;;;;;;5027790;28;20068;-62
2022/01/24 16:02:22;;;;;;;11.07;5.40;;;;;;;;;;5032959;28;20025;-61
2022/01/24 16:04:47;;;;;;;11.57;5.25;;;;;;;;;;5031813;28;20383;-62
2022/01/24 16:07:13;;;;;;;10.90;5.53;;;;;;;;;;5031710;28;20033;-62
2022/01/24 16:09:39;;;;;;;16.00;5.55;;;;;;;;;;5031330;28;20040;-62
2022/01/24 16:12:06;;;;;;;12.82;5.13;;;;;;;;;;5025988;28;20797;-61
2022/01/24 16:14:32;;;;;;;10.20;4.90;;;;;;;;;;5027981;28;20039;-61
2022/01/24 16:17:00;;;;;;;14.77;5.65;;;;;;;;;;5025202;28;20018;-62
2022/01/24 16:19:28;;;;;;;14.45;5.85;;;;;;;;;;5025703;28;20480;-62
2022/01/24 16:22:17;;;;;;;13.18;5.15;;;;;;;;;;5023203;28;20109;-62
2022/01/24 16:27:12;;;;;;;14.38;5.68;;;;;;;;;;5021188;28;20393;-62
2022/01/24 16:29:38;;;;;;;12.52;5.45;;;;;;;;;;5017133;28;20359;-62
2022/01/24 16:32:05;;;;;;;15.38;5.93;;;;;;;;;;5026296;28;20047;-62
2022/01/24 16:34:31;;;;;;;12.95;6.18;;;;;;;;;;5020569;28;20091;-62
2022/01/24 16:36:58;;;;;;;14.52;5.65;;;;;;;;;;5026147;28;20466;-62
2022/01/24 16:39:29;;;;;;;14.07;6.18;;;;;;;;;;5028973;28;20023;-62